Friday, October 19, 2018, 2:52 AM EDT
Back to Local

KLBE, Latrobe / Westmorland

Location: Latrobe, PA, United States Lat: 40.283
Local Time: 2:52 AM EDT ( 6:52 GMT) Lon: -79.4
Time Zone: US/Eastern Elev: 1184 ft

Show me the last for .
Show Coded

Time T Td Feel RH Dir Speed Gust Alt SLP Vis Weather Sky Remarks
2018-10-19 02:35 32 32 - 100 - Calm - 30.38 - 10 CLR None
2018-10-19 02:15 34 32 - 93 - Calm - 30.38 - 10 CLR None
2018-10-19 01:55 34 32 - 93 - Calm - 30.37 - 10 CLR None
2018-10-19 01:35 34 32 - 93 - Calm - 30.37 - 10 CLR None
2018-10-19 01:15 34 32 - 93 - Calm - 30.38 - 10 CLR None
2018-10-19 00:55 36 32 - 86 - Calm - 30.38 - 10 CLR None
2018-10-19 00:35 34 32 - 93 - Calm - 30.38 - 10 CLR None
2018-10-19 00:15 36 32 33 86 200° 3 - 30.38 - 10 CLR None
2018-10-18 23:55 36 32 32 86 210° 5 - 30.39 - 10 CLR None
2018-10-18 23:35 36 32 33 86 210° 3 - 30.39 - 10 CLR None
2018-10-18 23:15 36 32 - 86 - Calm - 30.39 - 10 CLR None
2018-10-18 22:55 36 32 - 86 - Calm - 30.40 - 10 CLR None
2018-10-18 22:35 37 32 - 80 - Calm - 30.40 - 10 CLR None
2018-10-18 22:15 36 30 - 80 - Calm - 30.40 - 10 CLR None
2018-10-18 21:47 36 32 31 86 230° 6 - 30.40 - 10 CLR None
2018-10-18 20:50 36 32 31 86 220° 6 - 30.40 - 10 CLR None
2018-10-18 19:45 41 30 37 65 230° 6 - 30.41 - 10 CLR None
2018-10-18 18:45 48 28 45 45 240° 8 - 30.42 - 10 CLR None
2018-10-18 17:50 48 28 44 45 270° 10 - 30.42 - 15 CLR None
2018-10-18 16:45 48 28 45 45 280° 7 - 30.42 - 15 CLR None
2018-10-18 15:45 48 27 44 42 270° 9 - 30.43 - 15 CLR None
2018-10-18 14:55 48 28 44 45 260° 9 - 30.44 - 15 CLR None
2018-10-18 13:50 46 27 41 45 310° 12 - 30.46 - 10 SCT060 None
2018-10-18 12:50 46 28 41 49 310° 12 - 30.47 - 10 SCT040 None
2018-10-18 11:50 45 28 39 52 310° 12 - 30.47 - 10 SCT040 None
2018-10-18 10:50 41 28 35 60 330° 9 - 30.47 - 15 SCT040 None
2018-10-18 09:50 41 30 35 65 360° 9 - 30.46 - 15 CLR None
2018-10-18 08:50 39 34 34 80 280° 7 - 30.46 - 15 CLR None
2018-10-18 07:50 36 28 30 74 270° 7 - 30.43 - 15 CLR None
2018-10-18 06:50 37 28 33 69 310° 6 - 30.42 - 15 CLR None
2018-10-18 05:55 37 28 34 69 280° 5 - 30.40 - 10 CLR None
2018-10-18 05:35 39 28 36 64 270° 5 - 30.39 - 10 SCT049 None
2018-10-18 05:15 39 27 35 60 270° 6 - 30.39 - 10 CLR None
2018-10-18 04:55 39 27 37 60 280° 3 - 30.38 - 10 FEW050 None
2018-10-18 04:35 41 27 39 56 270° 3 - 30.38 - 10 BKN050 None
2018-10-18 04:15 41 27 38 56 290° 5 - 30.38 - 10 OVC050 None
2018-10-18 03:55 39 28 36 64 260° 5 - 30.37 - 10 BKN050 None
2018-10-18 03:35 39 27 37 60 250° 3 - 30.36 - 10 FEW050 None
2018-10-18 03:15 41 27 39 56 280° 3 - 30.36 - 10 CLR None
2018-10-18 02:55 41 28 38 60 Variable 5 - 30.36 - 10 SCT055 None

Support USWX by starting your Amazon purchase here.